sensor_id;sensor_type;location;lat;lon;timestamp;P1;durP1;ratioP1;P2;durP2;ratioP2
45676;SDS011;31390;51.186;6.830;2022-10-30T00:02:18;15.13;;;5.65;;
45676;SDS011;31390;51.186;6.830;2022-10-30T00:04:44;11.63;;;5.63;;
45676;SDS011;31390;51.186;6.830;2022-10-30T00:07:11;14.02;;;5.05;;
45676;SDS011;31390;51.186;6.830;2022-10-30T00:09:37;8.40;;;5.15;;
45676;SDS011;31390;51.186;6.830;2022-10-30T00:12:04;10.18;;;5.22;;
45676;SDS011;31390;51.186;6.830;2022-10-30T00:14:30;9.77;;;5.03;;
45676;SDS011;31390;51.186;6.830;2022-10-30T00:16:57;12.65;;;5.30;;
45676;SDS011;31390;51.186;6.830;2022-10-30T00:19:23;10.90;;;6.13;;
45676;SDS011;31390;51.186;6.830;2022-10-30T00:21:50;10.23;;;5.38;;
45676;SDS011;31390;51.186;6.830;2022-10-30T00:24:16;13.80;;;5.47;;
45676;SDS011;31390;51.186;6.830;2022-10-30T00:26:42;11.70;;;6.32;;
45676;SDS011;31390;51.186;6.830;2022-10-30T00:29:09;11.27;;;5.63;;
45676;SDS011;31390;51.186;6.830;2022-10-30T00:31:35;12.00;;;5.50;;
45676;SDS011;31390;51.186;6.830;2022-10-30T00:34:02;11.05;;;5.47;;
45676;SDS011;31390;51.186;6.830;2022-10-30T00:36:28;11.85;;;5.22;;
45676;SDS011;31390;51.186;6.830;2022-10-30T00:38:55;8.65;;;5.25;;
45676;SDS011;31390;51.186;6.830;2022-10-30T00:41:22;15.07;;;5.68;;
45676;SDS011;31390;51.186;6.830;2022-10-30T00:43:49;12.88;;;5.72;;
45676;SDS011;31390;51.186;6.830;2022-10-30T00:46:30;9.02;;;5.70;;
45676;SDS011;31390;51.186;6.830;2022-10-30T00:49:16;18.15;;;5.78;;
45676;SDS011;31390;51.186;6.830;2022-10-30T00:51:47;16.73;;;5.20;;
45676;SDS011;31390;51.186;6.830;2022-10-30T00:54:15;10.38;;;5.10;;
45676;SDS011;31390;51.186;6.830;2022-10-30T00:56:43;9.63;;;5.25;;
45676;SDS011;31390;51.186;6.830;2022-10-30T00:59:11;11.77;;;5.60;;
45676;SDS011;31390;51.186;6.830;2022-10-30T01:01:39;9.88;;;5.15;;
45676;SDS011;31390;51.186;6.830;2022-10-30T01:04:06;12.27;;;5.38;;
45676;SDS011;31390;51.186;6.830;2022-10-30T01:06:34;9.57;;;5.15;;
45676;SDS011;31390;51.186;6.830;2022-10-30T01:09:02;8.93;;;5.40;;
45676;SDS011;31390;51.186;6.830;2022-10-30T01:11:29;9.45;;;5.82;;
45676;SDS011;31390;51.186;6.830;2022-10-30T01:13:57;9.95;;;5.22;;
45676;SDS011;31390;51.186;6.830;2022-10-30T01:21:47;11.65;;;5.68;;
45676;SDS011;31390;51.186;6.830;2022-10-30T01:24:23;10.57;;;5.72;;
45676;SDS011;31390;51.186;6.830;2022-10-30T01:26:59;11.77;;;5.45;;
45676;SDS011;31390;51.186;6.830;2022-10-30T01:29:39;6.32;;;5.40;;
45676;SDS011;31390;51.186;6.830;2022-10-30T01:34:46;7.72;;;5.15;;
45676;SDS011;31390;51.186;6.830;2022-10-30T01:37:23;8.38;;;4.80;;
45676;SDS011;31390;51.186;6.830;2022-10-30T01:39:50;8.60;;;5.47;;
45676;SDS011;31390;51.186;6.830;2022-10-30T01:45:03;10.07;;;5.35;;
45676;SDS011;31390;51.186;6.830;2022-10-30T01:47:33;9.82;;;5.13;;
45676;SDS011;31390;51.186;6.830;2022-10-30T01:50:26;8.82;;;5.63;;
45676;SDS011;31390;51.186;6.830;2022-10-30T01:53:08;9.73;;;5.70;;
45676;SDS011;31390;51.186;6.830;2022-10-30T01:55:51;15.35;;;5.72;;
45676;SDS011;31390;51.186;6.830;2022-10-30T01:58:22;10.93;;;6.18;;
45676;SDS011;31390;51.186;6.830;2022-10-30T02:00:56;11.45;;;5.85;;
45676;SDS011;31390;51.186;6.830;2022-10-30T02:03:24;12.13;;;5.63;;
45676;SDS011;31390;51.186;6.830;2022-10-30T02:05:51;9.77;;;5.72;;
45676;SDS011;31390;51.186;6.830;2022-10-30T02:08:19;8.82;;;5.80;;
45676;SDS011;31390;51.186;6.830;2022-10-30T02:10:47;14.25;;;6.28;;
45676;SDS011;31390;51.186;6.830;2022-10-30T02:13:14;10.90;;;6.55;;
45676;SDS011;31390;51.186;6.830;2022-10-30T02:15:42;8.50;;;5.80;;
45676;SDS011;31390;51.186;6.830;2022-10-30T02:18:09;16.13;;;6.60;;
45676;SDS011;31390;51.186;6.830;2022-10-30T02:20:38;11.55;;;5.85;;
45676;SDS011;31390;51.186;6.830;2022-10-30T02:23:04;11.38;;;5.35;;
45676;SDS011;31390;51.186;6.830;2022-10-30T02:25:33;10.45;;;5.85;;
45676;SDS011;31390;51.186;6.830;2022-10-30T02:27:59;16.67;;;5.55;;
45676;SDS011;31390;51.186;6.830;2022-10-30T02:30:28;10.75;;;5.50;;
45676;SDS011;31390;51.186;6.830;2022-10-30T02:32:55;10.85;;;5.63;;
45676;SDS011;31390;51.186;6.830;2022-10-30T02:35:22;8.48;;;5.63;;
45676;SDS011;31390;51.186;6.830;2022-10-30T02:37:50;12.32;;;6.50;;
45676;SDS011;31390;51.186;6.830;2022-10-30T02:40:17;9.68;;;6.32;;
45676;SDS011;31390;51.186;6.830;2022-10-30T02:42:43;13.02;;;6.30;;
45676;SDS011;31390;51.186;6.830;2022-10-30T02:45:10;11.07;;;5.75;;
45676;SDS011;31390;51.186;6.830;2022-10-30T02:47:37;11.60;;;6.28;;
45676;SDS011;31390;51.186;6.830;2022-10-30T02:50:03;15.43;;;6.22;;
45676;SDS011;31390;51.186;6.830;2022-10-30T02:52:33;11.38;;;6.25;;
45676;SDS011;31390;51.186;6.830;2022-10-30T02:55:00;12.93;;;6.45;;
45676;SDS011;31390;51.186;6.830;2022-10-30T02:57:26;13.63;;;7.25;;
45676;SDS011;31390;51.186;6.830;2022-10-30T02:59:53;12.68;;;6.35;;
45676;SDS011;31390;51.186;6.830;2022-10-30T03:02:20;10.70;;;6.25;;
45676;SDS011;31390;51.186;6.830;2022-10-30T03:04:48;12.18;;;6.72;;
45676;SDS011;31390;51.186;6.830;2022-10-30T03:07:14;10.95;;;5.97;;
45676;SDS011;31390;51.186;6.830;2022-10-30T03:09:41;11.85;;;6.15;;
45676;SDS011;31390;51.186;6.830;2022-10-30T03:12:07;9.40;;;5.95;;
45676;SDS011;31390;51.186;6.830;2022-10-30T03:14:34;13.70;;;5.78;;
45676;SDS011;31390;51.186;6.830;2022-10-30T03:17:02;14.65;;;6.30;;
45676;SDS011;31390;51.186;6.830;2022-10-30T03:19:30;13.70;;;6.70;;
45676;SDS011;31390;51.186;6.830;2022-10-30T03:21:57;10.48;;;5.90;;
45676;SDS011;31390;51.186;6.830;2022-10-30T03:24:23;9.65;;;6.38;;
45676;SDS011;31390;51.186;6.830;2022-10-30T03:26:50;12.65;;;7.25;;
45676;SDS011;31390;51.186;6.830;2022-10-30T03:29:17;14.43;;;7.72;;
45676;SDS011;31390;51.186;6.830;2022-10-30T03:31:43;12.93;;;7.50;;
45676;SDS011;31390;51.186;6.830;2022-10-30T03:34:17;16.08;;;6.88;;
45676;SDS011;31390;51.186;6.830;2022-10-30T03:36:43;12.63;;;6.65;;
45676;SDS011;31390;51.186;6.830;2022-10-30T03:39:11;10.93;;;7.53;;
45676;SDS011;31390;51.186;6.830;2022-10-30T03:41:40;11.10;;;7.22;;
45676;SDS011;31390;51.186;6.830;2022-10-30T03:44:08;13.38;;;6.82;;
45676;SDS011;31390;51.186;6.830;2022-10-30T03:46:35;12.13;;;6.53;;
45676;SDS011;31390;51.186;6.830;2022-10-30T03:49:14;11.88;;;6.43;;
45676;SDS011;31390;51.186;6.830;2022-10-30T03:51:41;10.25;;;7.03;;
45676;SDS011;31390;51.186;6.830;2022-10-30T03:54:07;11.10;;;6.65;;
45676;SDS011;31390;51.186;6.830;2022-10-30T03:56:34;12.85;;;6.65;;
45676;SDS011;31390;51.186;6.830;2022-10-30T03:59:02;11.10;;;6.30;;
45676;SDS011;31390;51.186;6.830;2022-10-30T04:01:28;13.00;;;7.70;;
45676;SDS011;31390;51.186;6.830;2022-10-30T04:03:55;9.18;;;6.60;;
45676;SDS011;31390;51.186;6.830;2022-10-30T04:06:23;10.25;;;7.03;;
45676;SDS011;31390;51.186;6.830;2022-10-30T04:08:50;10.48;;;6.00;;
45676;SDS011;31390;51.186;6.830;2022-10-30T04:11:16;10.88;;;6.90;;
45676;SDS011;31390;51.186;6.830;2022-10-30T04:13:43;12.20;;;6.55;;
45676;SDS011;31390;51.186;6.830;2022-10-30T04:16:13;12.00;;;7.07;;
45676;SDS011;31390;51.186;6.830;2022-10-30T04:18:40;11.88;;;7.35;;
45676;SDS011;31390;51.186;6.830;2022-10-30T04:21:07;10.75;;;6.80;;
45676;SDS011;31390;51.186;6.830;2022-10-30T04:23:35;14.13;;;7.05;;
45676;SDS011;31390;51.186;6.830;2022-10-30T04:26:02;14.77;;;7.80;;
45676;SDS011;31390;51.186;6.830;2022-10-30T04:28:29;12.05;;;6.97;;
45676;SDS011;31390;51.186;6.830;2022-10-30T04:30:56;13.93;;;6.95;;
45676;SDS011;31390;51.186;6.830;2022-10-30T04:33:24;13.80;;;7.43;;
45676;SDS011;31390;51.186;6.830;2022-10-30T04:35:50;12.20;;;7.45;;
45676;SDS011;31390;51.186;6.830;2022-10-30T04:38:19;11.93;;;7.03;;
45676;SDS011;31390;51.186;6.830;2022-10-30T04:40:46;11.57;;;7.45;;
45676;SDS011;31390;51.186;6.830;2022-10-30T04:43:14;12.10;;;7.35;;
45676;SDS011;31390;51.186;6.830;2022-10-30T04:45:42;13.05;;;8.40;;
45676;SDS011;31390;51.186;6.830;2022-10-30T04:48:11;13.13;;;7.57;;
45676;SDS011;31390;51.186;6.830;2022-10-30T04:50:38;15.27;;;7.60;;
45676;SDS011;31390;51.186;6.830;2022-10-30T04:53:05;12.88;;;8.35;;
45676;SDS011;31390;51.186;6.830;2022-10-30T04:55:32;15.25;;;8.55;;
45676;SDS011;31390;51.186;6.830;2022-10-30T04:57:59;10.55;;;7.75;;
45676;SDS011;31390;51.186;6.830;2022-10-30T05:00:31;13.63;;;8.30;;
45676;SDS011;31390;51.186;6.830;2022-10-30T05:03:06;17.52;;;9.25;;
45676;SDS011;31390;51.186;6.830;2022-10-30T05:05:34;17.48;;;9.45;;
45676;SDS011;31390;51.186;6.830;2022-10-30T05:08:00;15.45;;;9.40;;
45676;SDS011;31390;51.186;6.830;2022-10-30T05:10:28;17.25;;;9.60;;
45676;SDS011;31390;51.186;6.830;2022-10-30T05:12:54;15.35;;;8.48;;
45676;SDS011;31390;51.186;6.830;2022-10-30T05:15:21;14.60;;;9.27;;
45676;SDS011;31390;51.186;6.830;2022-10-30T05:17:51;15.88;;;8.70;;
45676;SDS011;31390;51.186;6.830;2022-10-30T05:20:21;13.50;;;8.02;;
45676;SDS011;31390;51.186;6.830;2022-10-30T05:22:55;11.30;;;8.05;;
45676;SDS011;31390;51.186;6.830;2022-10-30T05:25:22;11.20;;;7.63;;
45676;SDS011;31390;51.186;6.830;2022-10-30T05:27:49;15.02;;;7.55;;
45676;SDS011;31390;51.186;6.830;2022-10-30T05:30:17;11.57;;;8.00;;
45676;SDS011;31390;51.186;6.830;2022-10-30T05:32:43;12.63;;;8.20;;
45676;SDS011;31390;51.186;6.830;2022-10-30T05:35:10;12.60;;;7.32;;
45676;SDS011;31390;51.186;6.830;2022-10-30T05:37:37;9.85;;;7.18;;
45676;SDS011;31390;51.186;6.830;2022-10-30T05:40:03;12.30;;;7.90;;
45676;SDS011;31390;51.186;6.830;2022-10-30T05:42:30;15.80;;;8.73;;
45676;SDS011;31390;51.186;6.830;2022-10-30T05:45:00;12.77;;;7.93;;
45676;SDS011;31390;51.186;6.830;2022-10-30T05:47:32;11.30;;;7.43;;
45676;SDS011;31390;51.186;6.830;2022-10-30T05:49:58;14.65;;;7.28;;
45676;SDS011;31390;51.186;6.830;2022-10-30T05:52:25;15.95;;;7.22;;
45676;SDS011;31390;51.186;6.830;2022-10-30T05:54:52;10.73;;;7.75;;
45676;SDS011;31390;51.186;6.830;2022-10-30T05:57:27;14.05;;;7.97;;
45676;SDS011;31390;51.186;6.830;2022-10-30T05:59:54;13.68;;;8.02;;
45676;SDS011;31390;51.186;6.830;2022-10-30T06:02:21;10.43;;;7.57;;
45676;SDS011;31390;51.186;6.830;2022-10-30T06:04:48;11.50;;;8.27;;
45676;SDS011;31390;51.186;6.830;2022-10-30T06:07:15;10.23;;;7.32;;
45676;SDS011;31390;51.186;6.830;2022-10-30T06:09:42;12.90;;;7.90;;
45676;SDS011;31390;51.186;6.830;2022-10-30T06:12:09;10.32;;;7.63;;
45676;SDS011;31390;51.186;6.830;2022-10-30T06:14:48;14.95;;;7.53;;
45676;SDS011;31390;51.186;6.830;2022-10-30T06:17:15;12.95;;;7.65;;
45676;SDS011;31390;51.186;6.830;2022-10-30T06:19:53;16.38;;;8.02;;
45676;SDS011;31390;51.186;6.830;2022-10-30T06:22:41;10.02;;;7.15;;
45676;SDS011;31390;51.186;6.830;2022-10-30T06:25:14;11.90;;;7.57;;
45676;SDS011;31390;51.186;6.830;2022-10-30T06:27:51;13.00;;;7.72;;
45676;SDS011;31390;51.186;6.830;2022-10-30T06:30:19;8.98;;;6.93;;
45676;SDS011;31390;51.186;6.830;2022-10-30T06:32:45;11.55;;;7.18;;
45676;SDS011;31390;51.186;6.830;2022-10-30T06:35:12;14.73;;;7.70;;
45676;SDS011;31390;51.186;6.830;2022-10-30T06:37:46;11.93;;;7.70;;
45676;SDS011;31390;51.186;6.830;2022-10-30T06:40:14;12.40;;;6.80;;
45676;SDS011;31390;51.186;6.830;2022-10-30T06:42:56;11.70;;;6.97;;
45676;SDS011;31390;51.186;6.830;2022-10-30T06:45:36;10.27;;;7.63;;
45676;SDS011;31390;51.186;6.830;2022-10-30T06:48:02;12.20;;;7.65;;
45676;SDS011;31390;51.186;6.830;2022-10-30T06:50:34;16.00;;;8.40;;
45676;SDS011;31390;51.186;6.830;2022-10-30T06:53:00;10.32;;;7.85;;
45676;SDS011;31390;51.186;6.830;2022-10-30T06:55:27;14.50;;;7.95;;
45676;SDS011;31390;51.186;6.830;2022-10-30T06:58:22;15.38;;;8.35;;
45676;SDS011;31390;51.186;6.830;2022-10-30T07:01:06;10.63;;;8.18;;
45676;SDS011;31390;51.186;6.830;2022-10-30T07:03:54;11.35;;;8.68;;
45676;SDS011;31390;51.186;6.830;2022-10-30T07:06:21;12.65;;;8.40;;
45676;SDS011;31390;51.186;6.830;2022-10-30T07:08:48;16.30;;;8.05;;
45676;SDS011;31390;51.186;6.830;2022-10-30T07:11:15;14.48;;;8.77;;
45676;SDS011;31390;51.186;6.830;2022-10-30T07:14:04;12.88;;;8.27;;
45676;SDS011;31390;51.186;6.830;2022-10-30T07:16:53;13.55;;;8.77;;
45676;SDS011;31390;51.186;6.830;2022-10-30T07:19:19;11.82;;;8.75;;
45676;SDS011;31390;51.186;6.830;2022-10-30T07:21:46;12.65;;;8.10;;
45676;SDS011;31390;51.186;6.830;2022-10-30T07:24:13;17.42;;;8.55;;
45676;SDS011;31390;51.186;6.830;2022-10-30T07:26:48;12.82;;;9.18;;
45676;SDS011;31390;51.186;6.830;2022-10-30T07:29:31;12.68;;;8.27;;
45676;SDS011;31390;51.186;6.830;2022-10-30T07:32:18;13.15;;;8.35;;
45676;SDS011;31390;51.186;6.830;2022-10-30T07:35:07;14.98;;;8.80;;
45676;SDS011;31390;51.186;6.830;2022-10-30T07:37:54;12.48;;;7.70;;
45676;SDS011;31390;51.186;6.830;2022-10-30T07:40:33;15.00;;;8.80;;
45676;SDS011;31390;51.186;6.830;2022-10-30T07:43:17;17.70;;;9.38;;
45676;SDS011;31390;51.186;6.830;2022-10-30T07:46:06;14.25;;;8.10;;
45676;SDS011;31390;51.186;6.830;2022-10-30T07:48:56;13.07;;;7.93;;
45676;SDS011;31390;51.186;6.830;2022-10-30T07:51:47;15.57;;;8.38;;
45676;SDS011;31390;51.186;6.830;2022-10-30T07:54:14;12.85;;;8.43;;
45676;SDS011;31390;51.186;6.830;2022-10-30T07:56:41;14.75;;;8.30;;
45676;SDS011;31390;51.186;6.830;2022-10-30T07:59:16;13.40;;;8.45;;
45676;SDS011;31390;51.186;6.830;2022-10-30T08:02:21;10.57;;;7.40;;
45676;SDS011;31390;51.186;6.830;2022-10-30T08:05:11;12.90;;;7.72;;
45676;SDS011;31390;51.186;6.830;2022-10-30T08:08:01;14.18;;;8.10;;
45676;SDS011;31390;51.186;6.830;2022-10-30T08:10:27;15.38;;;8.38;;
45676;SDS011;31390;51.186;6.830;2022-10-30T08:12:55;13.13;;;7.75;;
45676;SDS011;31390;51.186;6.830;2022-10-30T08:15:22;13.27;;;7.63;;
45676;SDS011;31390;51.186;6.830;2022-10-30T08:17:49;12.23;;;7.65;;
45676;SDS011;31390;51.186;6.830;2022-10-30T08:20:20;15.85;;;8.55;;
45676;SDS011;31390;51.186;6.830;2022-10-30T08:22:51;10.30;;;7.43;;
45676;SDS011;31390;51.186;6.830;2022-10-30T08:25:23;12.43;;;7.20;;
45676;SDS011;31390;51.186;6.830;2022-10-30T08:27:52;13.55;;;7.45;;
45676;SDS011;31390;51.186;6.830;2022-10-30T08:30:18;13.38;;;7.80;;
45676;SDS011;31390;51.186;6.830;2022-10-30T08:32:45;13.13;;;9.13;;
45676;SDS011;31390;51.186;6.830;2022-10-30T08:35:30;14.07;;;8.75;;
45676;SDS011;31390;51.186;6.830;2022-10-30T08:37:59;17.25;;;8.75;;
45676;SDS011;31390;51.186;6.830;2022-10-30T08:40:26;12.60;;;8.75;;
45676;SDS011;31390;51.186;6.830;2022-10-30T08:43:00;13.93;;;7.97;;
45676;SDS011;31390;51.186;6.830;2022-10-30T08:45:30;14.90;;;7.57;;
45676;SDS011;31390;51.186;6.830;2022-10-30T08:48:03;11.38;;;7.03;;
45676;SDS011;31390;51.186;6.830;2022-10-30T08:50:35;12.07;;;6.82;;
45676;SDS011;31390;51.186;6.830;2022-10-30T08:53:03;13.63;;;6.85;;
45676;SDS011;31390;51.186;6.830;2022-10-30T08:55:31;11.15;;;6.72;;
45676;SDS011;31390;51.186;6.830;2022-10-30T08:58:01;13.27;;;7.28;;
45676;SDS011;31390;51.186;6.830;2022-10-30T09:00:27;12.70;;;6.40;;
45676;SDS011;31390;51.186;6.830;2022-10-30T09:03:09;13.05;;;6.90;;
45676;SDS011;31390;51.186;6.830;2022-10-30T09:05:59;14.02;;;6.35;;
45676;SDS011;31390;51.186;6.830;2022-10-30T09:08:32;10.52;;;6.13;;
45676;SDS011;31390;51.186;6.830;2022-10-30T09:11:17;12.52;;;6.00;;
45676;SDS011;31390;51.186;6.830;2022-10-30T09:13:43;11.75;;;7.53;;
45676;SDS011;31390;51.186;6.830;2022-10-30T09:16:10;12.02;;;6.20;;
45676;SDS011;31390;51.186;6.830;2022-10-30T09:18:37;13.75;;;6.28;;
45676;SDS011;31390;51.186;6.830;2022-10-30T09:21:04;11.68;;;6.28;;
45676;SDS011;31390;51.186;6.830;2022-10-30T09:23:38;13.07;;;6.22;;
45676;SDS011;31390;51.186;6.830;2022-10-30T09:26:23;11.27;;;6.03;;
45676;SDS011;31390;51.186;6.830;2022-10-30T09:28:56;14.30;;;5.80;;
45676;SDS011;31390;51.186;6.830;2022-10-30T09:31:38;14.30;;;7.47;;
45676;SDS011;31390;51.186;6.830;2022-10-30T09:34:07;11.40;;;6.25;;
45676;SDS011;31390;51.186;6.830;2022-10-30T09:36:43;13.98;;;6.43;;
45676;SDS011;31390;51.186;6.830;2022-10-30T09:39:11;11.43;;;5.90;;
45676;SDS011;31390;51.186;6.830;2022-10-30T09:47:01;12.75;;;6.00;;
45676;SDS011;31390;51.186;6.830;2022-10-30T09:49:42;11.45;;;6.50;;
45676;SDS011;31390;51.186;6.830;2022-10-30T09:52:16;13.60;;;6.78;;
45676;SDS011;31390;51.186;6.830;2022-10-30T10:00:06;11.68;;;5.78;;
45676;SDS011;31390;51.186;6.830;2022-10-30T10:05:21;12.00;;;6.35;;
45676;SDS011;31390;51.186;6.830;2022-10-30T10:08:13;9.27;;;6.43;;
45676;SDS011;31390;51.186;6.830;2022-10-30T10:11:07;14.88;;;6.05;;
45676;SDS011;31390;51.186;6.830;2022-10-30T10:16:06;10.80;;;5.72;;
45676;SDS011;31390;51.186;6.830;2022-10-30T10:21:28;10.88;;;5.45;;
45676;SDS011;31390;51.186;6.830;2022-10-30T10:23:58;9.38;;;5.50;;
45676;SDS011;31390;51.186;6.830;2022-10-30T10:26:28;13.43;;;5.22;;
45676;SDS011;31390;51.186;6.830;2022-10-30T10:31:45;10.68;;;5.40;;
45676;SDS011;31390;51.186;6.830;2022-10-30T10:39:46;10.02;;;5.50;;
45676;SDS011;31390;51.186;6.830;2022-10-30T10:42:29;12.65;;;5.50;;
45676;SDS011;31390;51.186;6.830;2022-10-30T10:45:11;11.20;;;5.45;;
45676;SDS011;31390;51.186;6.830;2022-10-30T10:47:53;10.45;;;5.43;;
45676;SDS011;31390;51.186;6.830;2022-10-30T10:50:24;8.23;;;5.05;;
45676;SDS011;31390;51.186;6.830;2022-10-30T10:53:01;12.77;;;5.63;;
45676;SDS011;31390;51.186;6.830;2022-10-30T10:55:32;11.23;;;5.72;;
45676;SDS011;31390;51.186;6.830;2022-10-30T10:58:15;9.80;;;5.18;;
45676;SDS011;31390;51.186;6.830;2022-10-30T11:00:44;9.75;;;4.78;;
45676;SDS011;31390;51.186;6.830;2022-10-30T11:03:16;13.27;;;5.13;;
45676;SDS011;31390;51.186;6.830;2022-10-30T11:05:47;7.88;;;5.15;;
45676;SDS011;31390;51.186;6.830;2022-10-30T11:08:17;14.10;;;5.22;;
45676;SDS011;31390;51.186;6.830;2022-10-30T11:10:47;12.25;;;5.22;;
45676;SDS011;31390;51.186;6.830;2022-10-30T11:13:14;10.40;;;5.07;;
45676;SDS011;31390;51.186;6.830;2022-10-30T11:18:08;7.97;;;4.47;;
45676;SDS011;31390;51.186;6.830;2022-10-30T11:20:36;9.10;;;4.80;;
45676;SDS011;31390;51.186;6.830;2022-10-30T11:23:24;10.52;;;4.95;;
45676;SDS011;31390;51.186;6.830;2022-10-30T11:25:51;13.38;;;5.32;;
45676;SDS011;31390;51.186;6.830;2022-10-30T11:28:25;8.55;;;4.72;;
45676;SDS011;31390;51.186;6.830;2022-10-30T11:31:15;13.23;;;5.50;;
45676;SDS011;31390;51.186;6.830;2022-10-30T11:33:42;10.32;;;5.43;;
45676;SDS011;31390;51.186;6.830;2022-10-30T11:36:08;10.07;;;4.97;;
45676;SDS011;31390;51.186;6.830;2022-10-30T11:38:41;12.27;;;5.15;;
45676;SDS011;31390;51.186;6.830;2022-10-30T11:41:07;10.95;;;4.68;;
45676;SDS011;31390;51.186;6.830;2022-10-30T11:43:38;12.02;;;5.22;;
45676;SDS011;31390;51.186;6.830;2022-10-30T11:46:06;10.88;;;4.85;;
45676;SDS011;31390;51.186;6.830;2022-10-30T11:48:38;8.63;;;4.68;;
45676;SDS011;31390;51.186;6.830;2022-10-30T11:51:08;7.13;;;4.85;;
45676;SDS011;31390;51.186;6.830;2022-10-30T11:53:36;15.85;;;5.32;;
45676;SDS011;31390;51.186;6.830;2022-10-30T11:56:18;10.38;;;5.22;;
45676;SDS011;31390;51.186;6.830;2022-10-30T11:58:46;14.00;;;4.85;;
45676;SDS011;31390;51.186;6.830;2022-10-30T12:03:40;10.27;;;4.82;;
45676;SDS011;31390;51.186;6.830;2022-10-30T12:06:15;12.65;;;5.20;;
45676;SDS011;31390;51.186;6.830;2022-10-30T12:08:57;11.07;;;4.65;;
45676;SDS011;31390;51.186;6.830;2022-10-30T12:11:30;11.55;;;4.97;;
45676;SDS011;31390;51.186;6.830;2022-10-30T12:13:57;9.77;;;5.53;;
45676;SDS011;31390;51.186;6.830;2022-10-30T12:16:24;10.52;;;4.90;;
45676;SDS011;31390;51.186;6.830;2022-10-30T12:18:54;8.70;;;4.95;;
45676;SDS011;31390;51.186;6.830;2022-10-30T12:21:25;10.82;;;5.15;;
45676;SDS011;31390;51.186;6.830;2022-10-30T12:23:57;10.52;;;5.32;;
45676;SDS011;31390;51.186;6.830;2022-10-30T12:26:26;13.10;;;5.90;;
45676;SDS011;31390;51.186;6.830;2022-10-30T12:28:58;11.80;;;5.38;;
45676;SDS011;31390;51.186;6.830;2022-10-30T12:31:29;9.90;;;4.43;;
45676;SDS011;31390;51.186;6.830;2022-10-30T12:36:47;9.57;;;5.45;;
45676;SDS011;31390;51.186;6.830;2022-10-30T12:42:07;8.43;;;5.13;;
45676;SDS011;31390;51.186;6.830;2022-10-30T12:44:38;8.63;;;4.47;;
45676;SDS011;31390;51.186;6.830;2022-10-30T12:54:39;7.90;;;4.55;;
45676;SDS011;31390;51.186;6.830;2022-10-30T12:57:10;12.45;;;5.35;;
45676;SDS011;31390;51.186;6.830;2022-10-30T12:59:54;10.00;;;4.97;;
45676;SDS011;31390;51.186;6.830;2022-10-30T13:02:26;8.75;;;4.97;;
45676;SDS011;31390;51.186;6.830;2022-10-30T13:04:57;11.32;;;5.28;;
45676;SDS011;31390;51.186;6.830;2022-10-30T13:07:26;12.98;;;5.95;;
45676;SDS011;31390;51.186;6.830;2022-10-30T13:10:00;8.77;;;5.25;;
45676;SDS011;31390;51.186;6.830;2022-10-30T13:12:32;13.05;;;5.40;;
45676;SDS011;31390;51.186;6.830;2022-10-30T13:15:05;11.40;;;6.07;;
45676;SDS011;31390;51.186;6.830;2022-10-30T13:17:35;12.52;;;6.53;;
45676;SDS011;31390;51.186;6.830;2022-10-30T13:20:04;6.93;;;4.32;;
45676;SDS011;31390;51.186;6.830;2022-10-30T13:22:36;12.27;;;5.65;;
45676;SDS011;31390;51.186;6.830;2022-10-30T13:25:19;15.40;;;5.70;;
45676;SDS011;31390;51.186;6.830;2022-10-30T13:27:51;16.75;;;5.82;;
45676;SDS011;31390;51.186;6.830;2022-10-30T13:30:20;14.85;;;5.10;;
45676;SDS011;31390;51.186;6.830;2022-10-30T13:35:29;8.80;;;5.15;;
45676;SDS011;31390;51.186;6.830;2022-10-30T13:40:35;8.23;;;4.38;;
45676;SDS011;31390;51.186;6.830;2022-10-30T13:53:59;12.90;;;5.15;;
45676;SDS011;31390;51.186;6.830;2022-10-30T13:56:28;9.50;;;5.30;;
45676;SDS011;31390;51.186;6.830;2022-10-30T14:04:32;11.02;;;4.97;;
45676;SDS011;31390;51.186;6.830;2022-10-30T14:14:58;11.38;;;4.75;;
45676;SDS011;31390;51.186;6.830;2022-10-30T14:17:29;8.27;;;4.05;;
45676;SDS011;31390;51.186;6.830;2022-10-30T14:22:39;9.00;;;4.15;;
45676;SDS011;31390;51.186;6.830;2022-10-30T14:25:13;9.07;;;4.20;;
45676;SDS011;31390;51.186;6.830;2022-10-30T14:27:42;13.18;;;4.47;;
45676;SDS011;31390;51.186;6.830;2022-10-30T14:30:18;10.60;;;5.28;;
45676;SDS011;31390;51.186;6.830;2022-10-30T14:32:48;7.68;;;4.10;;
45676;SDS011;31390;51.186;6.830;2022-10-30T14:35:29;10.50;;;4.45;;
45676;SDS011;31390;51.186;6.830;2022-10-30T14:37:56;9.93;;;4.40;;
45676;SDS011;31390;51.186;6.830;2022-10-30T14:43:11;11.23;;;4.32;;
45676;SDS011;31390;51.186;6.830;2022-10-30T14:45:41;13.02;;;4.47;;
45676;SDS011;31390;51.186;6.830;2022-10-30T14:50:51;11.43;;;4.95;;
45676;SDS011;31390;51.186;6.830;2022-10-30T14:59:07;8.93;;;4.97;;
45676;SDS011;31390;51.186;6.830;2022-10-30T15:04:13;10.02;;;4.10;;
45676;SDS011;31390;51.186;6.830;2022-10-30T15:06:49;10.10;;;3.72;;
45676;SDS011;31390;51.186;6.830;2022-10-30T15:09:20;7.03;;;4.03;;
45676;SDS011;31390;51.186;6.830;2022-10-30T15:14:31;10.20;;;4.18;;
45676;SDS011;31390;51.186;6.830;2022-10-30T15:19:51;8.13;;;3.65;;
45676;SDS011;31390;51.186;6.830;2022-10-30T15:22:19;6.70;;;3.70;;
45676;SDS011;31390;51.186;6.830;2022-10-30T15:24:46;9.10;;;4.22;;
45676;SDS011;31390;51.186;6.830;2022-10-30T15:27:17;10.85;;;4.53;;
45676;SDS011;31390;51.186;6.830;2022-10-30T15:30:02;9.70;;;4.80;;
45676;SDS011;31390;51.186;6.830;2022-10-30T15:32:29;12.95;;;10.55;;
45676;SDS011;31390;51.186;6.830;2022-10-30T15:34:59;17.73;;;12.02;;
45676;SDS011;31390;51.186;6.830;2022-10-30T15:37:28;13.73;;;7.40;;
45676;SDS011;31390;51.186;6.830;2022-10-30T15:42:39;12.02;;;8.90;;
45676;SDS011;31390;51.186;6.830;2022-10-30T15:45:09;19.20;;;7.95;;
45676;SDS011;31390;51.186;6.830;2022-10-30T15:47:37;11.30;;;6.32;;
45676;SDS011;31390;51.186;6.830;2022-10-30T15:50:11;14.50;;;7.88;;
45676;SDS011;31390;51.186;6.830;2022-10-30T15:52:39;15.10;;;8.32;;
45676;SDS011;31390;51.186;6.830;2022-10-30T15:55:08;14.32;;;6.47;;
45676;SDS011;31390;51.186;6.830;2022-10-30T15:57:40;11.63;;;5.32;;
45676;SDS011;31390;51.186;6.830;2022-10-30T16:00:32;8.77;;;5.20;;
45676;SDS011;31390;51.186;6.830;2022-10-30T16:05:27;7.95;;;4.97;;
45676;SDS011;31390;51.186;6.830;2022-10-30T16:07:54;7.10;;;4.20;;
45676;SDS011;31390;51.186;6.830;2022-10-30T16:10:21;10.90;;;4.63;;
45676;SDS011;31390;51.186;6.830;2022-10-30T16:12:47;9.25;;;4.88;;
45676;SDS011;31390;51.186;6.830;2022-10-30T16:15:16;8.32;;;4.00;;
45676;SDS011;31390;51.186;6.830;2022-10-30T16:17:47;9.73;;;4.78;;
45676;SDS011;31390;51.186;6.830;2022-10-30T16:20:21;8.80;;;4.57;;
45676;SDS011;31390;51.186;6.830;2022-10-30T16:22:47;9.85;;;4.78;;
45676;SDS011;31390;51.186;6.830;2022-10-30T16:25:14;10.52;;;5.10;;
45676;SDS011;31390;51.186;6.830;2022-10-30T16:27:41;9.02;;;5.10;;
45676;SDS011;31390;51.186;6.830;2022-10-30T16:30:10;11.27;;;4.88;;
45676;SDS011;31390;51.186;6.830;2022-10-30T16:32:38;7.38;;;4.63;;
45676;SDS011;31390;51.186;6.830;2022-10-30T16:35:05;9.57;;;5.05;;
45676;SDS011;31390;51.186;6.830;2022-10-30T16:39:59;7.82;;;4.65;;
45676;SDS011;31390;51.186;6.830;2022-10-30T16:42:28;11.60;;;5.45;;
45676;SDS011;31390;51.186;6.830;2022-10-30T16:45:04;11.40;;;5.03;;
45676;SDS011;31390;51.186;6.830;2022-10-30T16:47:42;10.68;;;5.28;;
45676;SDS011;31390;51.186;6.830;2022-10-30T16:50:10;11.80;;;4.93;;
45676;SDS011;31390;51.186;6.830;2022-10-30T16:52:40;7.38;;;4.80;;
45676;SDS011;31390;51.186;6.830;2022-10-30T16:55:07;8.68;;;4.82;;
45676;SDS011;31390;51.186;6.830;2022-10-30T16:57:35;7.43;;;4.68;;